Time;durP1;ratioP1;P1;durP2;ratioP2;P2;SDS_P1;SDS_P2;PMS_P1;PMS_P2;Temp;Humidity;BMP_temperature;BMP_pressure;BME280_temperature;BME280_humidity;BME280_pressure;Samples;Min_cycle;Max_cycle;Signal;HPM_P1;HPM_P2
2022/10/14 00:01:59;;;;;;;;;;;10.80;99.90;;;;;;5094990;28;19919;-73
2022/10/14 00:04:24;;;;;;;;;;;10.80;99.90;;;;;;5095791;28;19912;-73
2022/10/14 00:06:50;;;;;;;;;;;10.80;99.90;;;;;;5092569;28;19920;-75
2022/10/14 00:09:15;;;;;;;;;;;10.80;99.90;;;;;;5086513;28;19915;-74
2022/10/14 00:11:41;;;;;;;;;;;10.80;99.90;;;;;;5093027;28;19912;-75
2022/10/14 00:14:10;;;;;;;;;;;10.80;99.90;;;;;;5095001;28;20275;-75
2022/10/14 00:16:36;;;;;;;;;;;10.80;99.90;;;;;;5094255;28;19923;-75
2022/10/14 00:19:03;;;;;;;;;;;10.80;99.90;;;;;;5093973;28;19921;-73
2022/10/14 00:21:29;;;;;;;;;;;10.80;99.90;;;;;;5093304;28;19980;-76
2022/10/14 00:23:55;;;;;;;;;;;10.90;99.90;;;;;;5093263;28;20415;-74
2022/10/14 00:26:21;;;;;;;;;;;11.00;99.90;;;;;;5092939;28;19912;-73
2022/10/14 00:28:47;;;;;;;;;;;11.10;99.90;;;;;;5074900;28;20276;-72
2022/10/14 00:31:13;;;;;;;;;;;11.10;99.90;;;;;;5093309;28;19911;-72
2022/10/14 00:33:39;;;;;;;;;;;11.10;99.90;;;;;;5091960;28;19916;-73
2022/10/14 00:36:05;;;;;;;;;;;11.10;99.90;;;;;;5075339;28;20349;-73
2022/10/14 00:38:31;;;;;;;;;;;11.10;99.90;;;;;;5093035;28;20003;-76
2022/10/14 00:40:56;;;;;;;;;;;11.10;99.90;;;;;;5093243;28;20042;-75
2022/10/14 00:43:23;;;;;;;;;;;11.20;99.90;;;;;;5074692;28;20259;-72
2022/10/14 00:45:48;;;;;;;;;;;11.30;99.90;;;;;;5093074;28;19954;-72
2022/10/14 00:48:15;;;;;;;;;;;11.30;99.90;;;;;;5092866;28;19966;-75
2022/10/14 00:50:42;;;;;;;;;;;11.40;99.90;;;;;;5095249;28;19908;-76
2022/10/14 00:53:07;;;;;;;;;;;11.40;99.90;;;;;;5104815;28;19920;-74
2022/10/14 00:55:33;;;;;;;;;;;11.40;99.90;;;;;;5094898;28;19991;-73
2022/10/14 00:57:59;;;;;;;;;;;11.50;99.90;;;;;;5075962;28;20373;-76
2022/10/14 01:00:24;;;;;;;;;;;11.50;99.90;;;;;;5094564;28;19910;-76
2022/10/14 01:02:50;;;;;;;;;;;11.50;99.90;;;;;;5078456;28;20328;-74
2022/10/14 01:05:16;;;;;;;;;;;11.50;99.90;;;;;;5093849;28;20306;-75
2022/10/14 01:07:44;;;;;;;;;;;11.50;99.90;;;;;;5102981;28;19912;-75
2022/10/14 01:10:32;;;;;;;;;;;11.40;99.90;;;;;;5093317;28;19937;-73
2022/10/14 01:13:03;;;;;;;;;;;11.50;99.90;;;;;;5093158;28;19916;-75
2022/10/14 01:15:28;;;;;;;;;;;11.40;99.90;;;;;;5093852;28;19904;-76
2022/10/14 01:18:06;;;;;;;;;;;11.50;99.90;;;;;;5093131;28;19915;-75
2022/10/14 01:20:46;;;;;;;;;;;11.40;99.90;;;;;;5093225;28;19934;-73
2022/10/14 01:23:17;;;;;;;;;;;11.40;99.90;;;;;;5093017;28;20032;-74
2022/10/14 01:25:45;;;;;;;;;;;11.40;99.90;;;;;;5094044;28;19904;-76
2022/10/14 01:28:17;;;;;;;;;;;11.40;99.90;;;;;;5093116;28;19909;-73
2022/10/14 01:30:44;;;;;;;;;;;11.40;99.90;;;;;;5093588;28;19904;-76
2022/10/14 01:33:33;;;;;;;;;;;11.40;99.90;;;;;;5092456;28;19916;-77
2022/10/14 01:36:19;;;;;;;;;;;11.40;99.90;;;;;;5083534;28;20006;-76
2022/10/14 01:39:07;;;;;;;;;;;11.30;99.90;;;;;;5091149;28;19953;-76
2022/10/14 01:41:38;;;;;;;;;;;11.30;99.90;;;;;;5093521;28;19908;-73
2022/10/14 01:44:07;;;;;;;;;;;11.40;99.90;;;;;;5073310;28;20379;-75
2022/10/14 01:46:34;;;;;;;;;;;11.40;99.90;;;;;;5091896;28;20340;-75
2022/10/14 01:49:03;;;;;;;;;;;11.40;99.90;;;;;;5074849;28;20378;-76
2022/10/14 01:51:31;;;;;;;;;;;11.40;99.90;;;;;;5092784;28;19968;-77
2022/10/14 01:53:58;;;;;;;;;;;11.40;99.90;;;;;;5093408;28;19927;-77
2022/10/14 01:56:26;;;;;;;;;;;11.40;99.90;;;;;;5092949;28;19908;-76
2022/10/14 01:58:52;;;;;;;;;;;11.50;99.90;;;;;;5092133;28;19987;-75
2022/10/14 02:01:18;;;;;;;;;;;11.40;99.90;;;;;;5092676;28;19908;-73
2022/10/14 02:03:45;;;;;;;;;;;11.50;99.90;;;;;;5093497;28;19904;-75
2022/10/14 02:06:13;;;;;;;;;;;11.40;99.90;;;;;;5092299;28;19918;-74
2022/10/14 02:09:00;;;;;;;;;;;11.40;99.90;;;;;;5092600;28;19908;-74
2022/10/14 02:11:27;;;;;;;;;;;11.40;99.90;;;;;;5092624;28;20344;-75
2022/10/14 02:13:58;;;;;;;;;;;11.40;99.90;;;;;;5092289;28;19928;-74
2022/10/14 02:16:42;;;;;;;;;;;11.40;99.90;;;;;;5091766;28;19912;-74
2022/10/14 02:19:07;;;;;;;;;;;11.30;99.90;;;;;;5092256;28;20268;-74
2022/10/14 02:21:33;;;;;;;;;;;11.30;99.90;;;;;;5093035;28;19912;-74
2022/10/14 02:24:04;;;;;;;;;;;11.20;99.90;;;;;;5091702;28;20340;-74
2022/10/14 02:26:30;;;;;;;;;;;11.20;99.90;;;;;;5093307;28;19904;-74
2022/10/14 02:28:57;;;;;;;;;;;11.20;99.90;;;;;;5087904;28;19961;-74
2022/10/14 02:31:23;;;;;;;;;;;11.20;99.90;;;;;;5092468;28;20291;-74
2022/10/14 02:33:51;;;;;;;;;;;11.30;99.90;;;;;;5092189;28;20305;-74
2022/10/14 02:36:19;;;;;;;;;;;11.40;99.90;;;;;;5097133;28;19908;-74
2022/10/14 02:38:45;;;;;;;;;;;11.40;99.90;;;;;;5096096;28;19915;-74
2022/10/14 02:41:13;;;;;;;;;;;11.50;99.90;;;;;;5096391;28;19904;-74
2022/10/14 02:43:38;;;;;;;;;;;11.60;99.90;;;;;;5096729;28;20331;-74
2022/10/14 02:46:04;;;;;;;;;;;11.60;99.90;;;;;;5096427;28;19950;-74
2022/10/14 02:48:30;;;;;;;;;;;11.60;99.90;;;;;;5096302;28;19951;-74
2022/10/14 02:50:55;;;;;;;;;;;11.60;99.90;;;;;;5096090;28;19919;-74
2022/10/14 02:53:21;;;;;;;;;;;11.70;99.90;;;;;;5096335;28;19916;-74
2022/10/14 02:55:46;;;;;;;;;;;11.70;99.90;;;;;;5096497;28;19911;-74
2022/10/14 02:58:12;;;;;;;;;;;11.70;99.90;;;;;;5096378;28;19955;-74
2022/10/14 03:00:37;;;;;;;;;;;11.60;99.90;;;;;;5095946;28;19912;-74
2022/10/14 03:03:03;;;;;;;;;;;11.60;99.90;;;;;;5095775;28;19908;-74
2022/10/14 03:05:28;;;;;;;;;;;11.60;99.90;;;;;;5093867;28;20000;-74
2022/10/14 03:07:54;;;;;;;;;;;11.70;99.90;;;;;;5096112;28;19908;-75
2022/10/14 03:10:19;;;;;;;;;;;11.70;99.90;;;;;;5096078;28;19999;-74
2022/10/14 03:12:45;;;;;;;;;;;11.70;99.90;;;;;;5096172;28;20172;-74
2022/10/14 03:15:11;;;;;;;;;;;11.70;99.90;;;;;;5095295;28;20326;-74
2022/10/14 03:17:36;;;;;;;;;;;11.70;99.90;;;;;;5091008;28;19962;-74
2022/10/14 03:20:03;;;;;;;;;;;11.70;99.90;;;;;;5095857;28;20279;-74
2022/10/14 03:22:28;;;;;;;;;;;11.70;99.90;;;;;;5095786;28;20275;-74
2022/10/14 03:24:54;;;;;;;;;;;11.70;99.90;;;;;;5088692;28;19915;-75
2022/10/14 03:27:19;;;;;;;;;;;11.70;99.90;;;;;;5094960;28;20000;-74
2022/10/14 03:29:44;;;;;;;;;;;11.70;99.90;;;;;;5095275;28;20419;-74
2022/10/14 03:32:10;;;;;;;;;;;11.70;99.90;;;;;;5095613;28;19915;-75
2022/10/14 03:34:35;;;;;;;;;;;11.70;99.90;;;;;;5094973;28;19919;-74
2022/10/14 03:37:01;;;;;;;;;;;11.80;99.90;;;;;;5078542;28;20225;-74
2022/10/14 03:39:26;;;;;;;;;;;11.80;99.90;;;;;;5083670;28;19954;-74
2022/10/14 03:41:52;;;;;;;;;;;11.80;99.90;;;;;;5095667;28;20239;-74
2022/10/14 03:44:17;;;;;;;;;;;11.80;99.90;;;;;;5095133;28;19912;-74
2022/10/14 03:46:43;;;;;;;;;;;11.80;99.90;;;;;;5076738;28;19951;-74
2022/10/14 03:49:08;;;;;;;;;;;11.80;99.90;;;;;;5095296;28;19953;-73
2022/10/14 03:51:34;;;;;;;;;;;11.80;99.90;;;;;;5095759;28;20271;-74
2022/10/14 03:53:59;;;;;;;;;;;11.80;99.90;;;;;;5095520;28;19912;-73
2022/10/14 03:56:25;;;;;;;;;;;11.80;99.90;;;;;;5077166;28;19908;-74
2022/10/14 03:58:50;;;;;;;;;;;11.90;99.90;;;;;;5106299;28;19950;-74
2022/10/14 04:01:16;;;;;;;;;;;11.90;99.90;;;;;;5076976;28;20360;-74
2022/10/14 04:03:45;;;;;;;;;;;12.00;99.90;;;;;;5095297;28;20056;-74
2022/10/14 04:06:11;;;;;;;;;;;12.00;99.90;;;;;;5094942;28;19908;-74
2022/10/14 04:08:36;;;;;;;;;;;12.10;99.90;;;;;;5095014;28;20374;-74
2022/10/14 04:11:02;;;;;;;;;;;12.10;99.90;;;;;;5094287;28;19947;-74
2022/10/14 04:13:27;;;;;;;;;;;12.10;99.90;;;;;;5083550;28;19916;-75
2022/10/14 04:15:53;;;;;;;;;;;12.10;99.90;;;;;;5095600;28;20684;-74
2022/10/14 04:18:18;;;;;;;;;;;12.10;99.90;;;;;;5094789;28;19919;-74
2022/10/14 04:20:43;;;;;;;;;;;12.10;99.90;;;;;;5094458;28;19912;-74
2022/10/14 04:23:09;;;;;;;;;;;12.20;99.90;;;;;;5095237;28;19904;-74
2022/10/14 04:25:36;;;;;;;;;;;12.20;99.90;;;;;;5094369;28;19913;-74
2022/10/14 04:28:01;;;;;;;;;;;12.20;99.90;;;;;;5094571;28;19908;-74
2022/10/14 04:30:27;;;;;;;;;;;12.30;99.90;;;;;;5094093;28;19931;-74
2022/10/14 04:32:52;;;;;;;;;;;12.30;99.90;;;;;;5093696;28;19916;-74
2022/10/14 04:35:18;;;;;;;;;;;12.30;99.90;;;;;;5076100;28;20011;-74
2022/10/14 04:37:43;;;;;;;;;;;12.30;99.90;;;;;;5093282;28;19912;-74
2022/10/14 04:40:09;;;;;;;;;;;12.40;99.90;;;;;;5093277;28;19919;-74
2022/10/14 04:42:35;;;;;;;;;;;12.30;99.90;;;;;;5094168;28;19908;-74
2022/10/14 04:45:00;;;;;;;;;;;12.30;99.90;;;;;;5094804;28;19911;-75
2022/10/14 04:47:26;;;;;;;;;;;12.30;99.90;;;;;;5093632;28;19908;-74
2022/10/14 04:49:51;;;;;;;;;;;12.30;99.90;;;;;;5093824;28;19908;-74
2022/10/14 04:52:17;;;;;;;;;;;12.30;99.90;;;;;;5094170;28;20386;-74
2022/10/14 04:54:42;;;;;;;;;;;12.30;99.90;;;;;;5093837;28;19908;-74
2022/10/14 04:57:08;;;;;;;;;;;12.30;99.90;;;;;;5093639;28;20251;-74
2022/10/14 04:59:34;;;;;;;;;;;12.30;99.90;;;;;;5094095;28;19920;-75
2022/10/14 05:02:00;;;;;;;;;;;12.40;99.90;;;;;;5093867;28;19908;-74
2022/10/14 05:04:25;;;;;;;;;;;12.30;99.90;;;;;;5093790;28;19998;-74
2022/10/14 05:06:51;;;;;;;;;;;12.30;99.90;;;;;;5094329;28;19904;-75
2022/10/14 05:09:16;;;;;;;;;;;12.40;99.90;;;;;;5093356;28;19912;-75
2022/10/14 05:11:42;;;;;;;;;;;12.40;99.90;;;;;;5093699;28;19912;-73
2022/10/14 05:14:07;;;;;;;;;;;12.40;99.90;;;;;;5092711;28;19959;-74
2022/10/14 05:16:32;;;;;;;;;;;12.40;99.90;;;;;;5094130;28;19904;-73
2022/10/14 05:18:58;;;;;;;;;;;12.40;99.90;;;;;;5094019;28;19909;-73
2022/10/14 05:21:23;;;;;;;;;;;12.40;99.90;;;;;;5093994;28;19916;-74
2022/10/14 05:23:49;;;;;;;;;;;12.40;99.90;;;;;;5093594;28;20028;-74
2022/10/14 05:26:14;;;;;;;;;;;12.50;99.90;;;;;;5094013;28;20318;-74
2022/10/14 05:28:40;;;;;;;;;;;12.50;99.90;;;;;;5086883;28;19924;-74
2022/10/14 05:31:05;;;;;;;;;;;12.50;99.90;;;;;;5091623;28;19995;-75
2022/10/14 05:33:31;;;;;;;;;;;12.50;99.90;;;;;;5092147;28;20366;-74
2022/10/14 05:35:58;;;;;;;;;;;12.60;99.90;;;;;;5073911;28;19905;-74
2022/10/14 05:38:23;;;;;;;;;;;12.60;99.90;;;;;;5081058;28;19908;-75
2022/10/14 05:40:52;;;;;;;;;;;12.60;99.90;;;;;;5092812;28;20461;-74
2022/10/14 05:43:18;;;;;;;;;;;12.60;99.90;;;;;;5093554;28;19908;-75
2022/10/14 05:45:43;;;;;;;;;;;12.60;99.90;;;;;;5093515;28;19911;-75
2022/10/14 05:48:09;;;;;;;;;;;12.50;99.90;;;;;;5074781;28;19915;-75
2022/10/14 05:50:34;;;;;;;;;;;12.50;99.90;;;;;;5093376;28;19912;-75
2022/10/14 05:53:00;;;;;;;;;;;12.50;99.90;;;;;;5093140;28;20294;-75
2022/10/14 05:55:26;;;;;;;;;;;12.60;99.90;;;;;;5076772;28;19930;-76
2022/10/14 05:57:55;;;;;;;;;;;12.60;99.90;;;;;;5093215;28;20343;-75
2022/10/14 06:00:20;;;;;;;;;;;12.60;99.90;;;;;;5083182;28;20367;-75
2022/10/14 06:02:46;;;;;;;;;;;12.60;99.90;;;;;;5093421;28;19912;-75
2022/10/14 06:05:11;;;;;;;;;;;12.60;99.90;;;;;;5093265;28;20351;-75
2022/10/14 06:07:37;;;;;;;;;;;12.60;99.90;;;;;;5092820;28;19959;-74
2022/10/14 06:10:02;;;;;;;;;;;12.60;99.90;;;;;;5093096;28;19953;-74
2022/10/14 06:12:28;;;;;;;;;;;12.60;99.90;;;;;;5092497;28;19927;-74
2022/10/14 06:14:53;;;;;;;;;;;12.60;99.90;;;;;;5092885;28;19908;-74
2022/10/14 06:17:18;;;;;;;;;;;12.60;99.90;;;;;;5074621;28;19926;-75
2022/10/14 06:19:44;;;;;;;;;;;12.60;99.90;;;;;;5092504;28;19915;-75
2022/10/14 06:22:09;;;;;;;;;;;12.70;99.90;;;;;;5105272;28;20011;-75
2022/10/14 06:24:36;;;;;;;;;;;12.70;99.90;;;;;;5071419;28;19920;-74
2022/10/14 06:27:01;;;;;;;;;;;12.70;99.90;;;;;;5090728;28;19904;-74
2022/10/14 06:29:30;;;;;;;;;;;12.70;99.90;;;;;;5074873;28;19916;-75
2022/10/14 06:31:56;;;;;;;;;;;12.70;99.90;;;;;;5092482;28;19908;-74
2022/10/14 06:34:23;;;;;;;;;;;12.70;99.90;;;;;;5093181;28;19923;-74
2022/10/14 06:36:48;;;;;;;;;;;12.80;99.90;;;;;;5092068;28;19908;-75
2022/10/14 06:39:14;;;;;;;;;;;12.80;99.90;;;;;;5088613;28;19934;-75
2022/10/14 06:41:39;;;;;;;;;;;12.80;99.90;;;;;;5092567;28;20376;-74
2022/10/14 06:44:05;;;;;;;;;;;12.80;99.90;;;;;;5092091;28;19919;-74
2022/10/14 06:46:30;;;;;;;;;;;12.80;99.90;;;;;;5092896;28;19908;-75
2022/10/14 06:48:56;;;;;;;;;;;12.80;99.90;;;;;;5074095;28;20405;-75
2022/10/14 06:51:21;;;;;;;;;;;12.80;99.90;;;;;;5091667;28;19908;-75
2022/10/14 06:53:47;;;;;;;;;;;12.90;99.90;;;;;;5090165;28;19916;-74
2022/10/14 06:56:12;;;;;;;;;;;12.90;99.90;;;;;;5085626;28;19940;-74
2022/10/14 06:58:38;;;;;;;;;;;13.00;99.90;;;;;;5084604;28;20007;-75
2022/10/14 07:01:04;;;;;;;;;;;13.00;99.90;;;;;;5088493;28;19908;-75
2022/10/14 07:03:30;;;;;;;;;;;13.00;99.90;;;;;;5091928;28;19920;-75
2022/10/14 07:05:55;;;;;;;;;;;13.10;99.90;;;;;;5092383;28;19953;-74
2022/10/14 07:08:21;;;;;;;;;;;13.10;99.90;;;;;;5091744;28;20364;-74
2022/10/14 07:10:46;;;;;;;;;;;13.10;99.90;;;;;;5091892;28;20023;-75
2022/10/14 07:13:12;;;;;;;;;;;13.20;99.90;;;;;;5071686;28;20336;-75
2022/10/14 07:15:38;;;;;;;;;;;13.20;99.90;;;;;;5089344;28;19915;-74
2022/10/14 07:18:04;;;;;;;;;;;13.20;99.90;;;;;;5090410;28;19915;-74
2022/10/14 07:20:29;;;;;;;;;;;13.30;99.90;;;;;;5097859;28;19909;-74
2022/10/14 07:22:55;;;;;;;;;;;13.30;99.90;;;;;;5093528;28;19908;-74
2022/10/14 07:25:21;;;;;;;;;;;13.40;99.90;;;;;;5075259;28;20414;-74
2022/10/14 07:27:47;;;;;;;;;;;13.40;99.90;;;;;;5094589;28;19912;-74
2022/10/14 07:30:12;;;;;;;;;;;13.40;99.90;;;;;;5095409;28;19908;-74
2022/10/14 07:32:38;;;;;;;;;;;13.50;99.90;;;;;;5091128;28;19966;-74
2022/10/14 07:35:03;;;;;;;;;;;13.50;99.90;;;;;;5094185;28;19912;-74
2022/10/14 07:37:29;;;;;;;;;;;13.50;99.90;;;;;;5095325;28;19904;-74
2022/10/14 07:39:54;;;;;;;;;;;13.50;99.90;;;;;;5093901;28;19908;-74
2022/10/14 07:42:22;;;;;;;;;;;13.60;99.90;;;;;;5095810;28;19951;-74
2022/10/14 07:44:48;;;;;;;;;;;13.60;99.90;;;;;;5084153;28;19973;-73
2022/10/14 07:47:13;;;;;;;;;;;13.60;99.90;;;;;;5094172;28;19907;-73
2022/10/14 07:49:38;;;;;;;;;;;13.60;99.90;;;;;;5095363;28;19969;-74
2022/10/14 07:52:04;;;;;;;;;;;13.60;99.90;;;;;;5095316;28;19908;-73
2022/10/14 07:54:31;;;;;;;;;;;13.60;99.90;;;;;;5094845;28;19919;-74
2022/10/14 07:56:57;;;;;;;;;;;13.70;99.90;;;;;;5095363;28;19935;-74
2022/10/14 07:59:22;;;;;;;;;;;13.70;99.90;;;;;;5091960;28;20272;-73
2022/10/14 08:01:48;;;;;;;;;;;13.80;99.90;;;;;;5095283;28;19954;-73
2022/10/14 08:04:14;;;;;;;;;;;13.80;99.90;;;;;;5086700;28;19970;-74
2022/10/14 08:06:40;;;;;;;;;;;13.80;99.90;;;;;;5075102;28;19912;-74
2022/10/14 08:09:06;;;;;;;;;;;13.90;99.90;;;;;;5075384;28;19912;-76
2022/10/14 08:11:32;;;;;;;;;;;13.90;99.90;;;;;;5075742;28;19931;-74
2022/10/14 08:13:58;;;;;;;;;;;14.00;99.90;;;;;;5077647;28;20267;-73
2022/10/14 08:16:25;;;;;;;;;;;14.00;99.90;;;;;;5075500;28;19915;-73
2022/10/14 08:18:51;;;;;;;;;;;14.00;99.90;;;;;;5094617;28;19904;-73
2022/10/14 08:21:18;;;;;;;;;;;14.10;99.90;;;;;;5092113;28;19916;-77
2022/10/14 08:23:43;;;;;;;;;;;14.10;99.90;;;;;;5095139;28;19950;-77
2022/10/14 08:26:21;;;;;;;;;;;14.20;99.90;;;;;;5094701;28;19908;-74
2022/10/14 08:28:47;;;;;;;;;;;14.20;99.90;;;;;;5095228;28;19961;-74
2022/10/14 08:31:13;;;;;;;;;;;14.20;99.90;;;;;;5090070;28;19913;-74
2022/10/14 08:33:38;;;;;;;;;;;14.20;99.90;;;;;;5094820;28;19958;-75
2022/10/14 08:36:04;;;;;;;;;;;14.30;99.90;;;;;;5094466;28;19904;-75
2022/10/14 08:38:29;;;;;;;;;;;14.30;99.90;;;;;;5094798;28;19999;-75
2022/10/14 08:41:01;;;;;;;;;;;14.30;99.90;;;;;;5094693;28;19927;-74
2022/10/14 08:43:35;;;;;;;;;;;14.40;99.90;;;;;;5107374;28;19912;-76
2022/10/14 08:46:10;;;;;;;;;;;14.40;99.90;;;;;;5094732;28;19957;-75
2022/10/14 08:48:36;;;;;;;;;;;14.40;99.90;;;;;;5076377;28;20363;-77
2022/10/14 08:51:10;;;;;;;;;;;14.50;99.90;;;;;;5074280;28;19905;-75
2022/10/14 08:53:40;;;;;;;;;;;14.50;99.90;;;;;;5074416;28;20007;-73
2022/10/14 08:56:06;;;;;;;;;;;14.60;99.90;;;;;;5074569;28;19937;-76
2022/10/14 08:58:32;;;;;;;;;;;14.60;99.90;;;;;;5074358;28;19905;-73
2022/10/14 09:01:00;;;;;;;;;;;14.70;99.90;;;;;;5073330;28;20016;-74
2022/10/14 09:03:32;;;;;;;;;;;14.80;99.90;;;;;;5074288;28;20333;-73
2022/10/14 09:06:05;;;;;;;;;;;14.80;99.90;;;;;;5074311;28;19920;-75
2022/10/14 09:08:37;;;;;;;;;;;14.90;99.90;;;;;;5086624;28;19908;-75
2022/10/14 09:11:03;;;;;;;;;;;15.00;99.90;;;;;;5110453;28;19920;-73
2022/10/14 09:13:37;;;;;;;;;;;14.90;99.90;;;;;;5093438;28;19916;-74
2022/10/14 09:16:15;;;;;;;;;;;15.00;99.90;;;;;;5094346;28;19904;-74
2022/10/14 09:18:45;;;;;;;;;;;15.00;99.90;;;;;;5075752;28;19904;-76
2022/10/14 09:21:30;;;;;;;;;;;15.10;99.90;;;;;;5094308;28;19904;-74
2022/10/14 09:23:57;;;;;;;;;;;15.10;99.90;;;;;;5094124;28;19904;-73
2022/10/14 09:26:25;;;;;;;;;;;15.20;99.90;;;;;;5106488;28;19915;-75
2022/10/14 09:28:53;;;;;;;;;;;15.20;99.90;;;;;;5093717;28;19990;-73
2022/10/14 09:31:18;;;;;;;;;;;15.30;99.90;;;;;;5094103;28;19908;-74
2022/10/14 09:33:44;;;;;;;;;;;15.40;99.90;;;;;;5093585;28;19912;-74
2022/10/14 09:36:14;;;;;;;;;;;15.40;99.90;;;;;;5093857;28;19915;-73
2022/10/14 09:38:40;;;;;;;;;;;15.50;99.90;;;;;;5093708;28;20285;-72
2022/10/14 09:41:09;;;;;;;;;;;15.60;99.90;;;;;;5093840;28;19957;-73
2022/10/14 09:43:35;;;;;;;;;;;15.60;99.90;;;;;;5093482;28;19931;-73
2022/10/14 09:46:09;;;;;;;;;;;15.60;99.90;;;;;;5093477;28;20340;-73
2022/10/14 09:48:43;;;;;;;;;;;15.60;99.90;;;;;;5092862;28;19970;-72
2022/10/14 09:51:21;;;;;;;;;;;15.60;99.90;;;;;;5090186;28;19991;-74
2022/10/14 09:53:48;;;;;;;;;;;15.50;99.90;;;;;;5090041;28;20335;-73
2022/10/14 09:56:13;;;;;;;;;;;15.40;99.90;;;;;;5092026;28;19915;-72
2022/10/14 09:58:58;;;;;;;;;;;15.50;99.90;;;;;;5093423;28;19908;-72
2022/10/14 10:01:53;;;;;;;;;;;15.50;99.90;;;;;;5092352;28;19909;-76
2022/10/14 10:04:30;;;;;;;;;;;15.40;99.90;;;;;;5078498;28;20266;-75
2022/10/14 10:06:57;;;;;;;;;;;15.50;99.90;;;;;;5092170;28;20313;-74
2022/10/14 10:09:23;;;;;;;;;;;15.40;99.90;;;;;;5089196;28;19904;-77
2022/10/14 10:11:48;;;;;;;;;;;15.50;99.90;;;;;;5091686;28;19915;-74
2022/10/14 10:14:23;;;;;;;;;;;15.50;99.90;;;;;;5091659;28;19916;-73
2022/10/14 10:16:50;;;;;;;;;;;15.50;99.90;;;;;;5090877;28;19908;-74
2022/10/14 10:19:20;;;;;;;;;;;15.60;99.90;;;;;;5092010;28;20010;-74
2022/10/14 10:21:46;;;;;;;;;;;15.50;99.90;;;;;;5089439;28;19908;-74
2022/10/14 10:24:20;;;;;;;;;;;15.60;99.90;;;;;;5091911;28;19949;-73
2022/10/14 10:26:46;;;;;;;;;;;15.50;99.90;;;;;;5089713;28;20004;-74
2022/10/14 10:29:23;;;;;;;;;;;15.40;99.90;;;;;;5091764;28;19904;-73
2022/10/14 10:32:07;;;;;;;;;;;15.40;99.90;;;;;;5093731;28;19908;-73
2022/10/14 10:34:39;;;;;;;;;;;15.50;99.90;;;;;;5090308;28;19923;-74
2022/10/14 10:37:10;;;;;;;;;;;15.50;99.90;;;;;;5090103;28;19909;-74
2022/10/14 10:39:38;;;;;;;;;;;15.60;99.90;;;;;;5091814;28;19909;-76
2022/10/14 10:42:11;;;;;;;;;;;15.60;99.90;;;;;;5089312;28;19908;-77
2022/10/14 10:44:43;;;;;;;;;;;15.60;99.90;;;;;;5091667;28;19974;-75
2022/10/14 10:47:27;;;;;;;;;;;15.60;99.90;;;;;;5091383;28;20344;-74
2022/10/14 10:49:59;;;;;;;;;;;15.60;99.90;;;;;;5092695;28;20227;-74
2022/10/14 10:52:27;;;;;;;;;;;15.70;99.90;;;;;;5089300;28;20343;-73
2022/10/14 10:55:11;;;;;;;;;;;15.70;99.90;;;;;;5091900;28;19915;-73
2022/10/14 10:57:47;;;;;;;;;;;15.70;99.90;;;;;;5094755;28;20044;-74
2022/10/14 11:00:15;;;;;;;;;;;15.70;99.90;;;;;;5095574;28;19910;-74
2022/10/14 11:02:59;;;;;;;;;;;15.80;99.90;;;;;;5095186;28;20271;-74
2022/10/14 11:05:33;;;;;;;;;;;15.80;99.90;;;;;;5093069;28;20302;-74
2022/10/14 11:13:40;;;;;;;;;;;16.00;99.90;;;;;;5095678;28;19939;-74
2022/10/14 11:16:14;;;;;;;;;;;16.10;99.90;;;;;;5092745;28;20348;-74
2022/10/14 11:18:55;;;;;;;;;;;16.10;99.90;;;;;;5091457;28;19965;-74
2022/10/14 11:21:41;;;;;;;;;;;16.20;99.90;;;;;;5092790;28;19999;-74
2022/10/14 11:24:20;;;;;;;;;;;16.20;99.90;;;;;;5093127;28;19991;-75
2022/10/14 11:27:07;;;;;;;;;;;16.20;99.90;;;;;;5099832;28;19908;-73
2022/10/14 11:29:41;;;;;;;;;;;16.30;99.90;;;;;;5075292;28;19908;-73
2022/10/14 11:32:24;;;;;;;;;;;16.30;99.90;;;;;;5073603;28;19908;-75
2022/10/14 11:34:55;;;;;;;;;;;16.30;99.90;;;;;;5066641;28;19921;-75
2022/10/14 11:37:24;;;;;;;;;;;16.10;99.90;;;;;;5085605;28;19949;-75
2022/10/14 11:40:06;;;;;;;;;;;16.00;99.90;;;;;;5090635;28;20310;-77
2022/10/14 11:42:51;;;;;;;;;;;16.00;99.90;;;;;;5075093;28;19905;-74
2022/10/14 11:45:37;;;;;;;;;;;16.00;99.90;;;;;;5057310;28;19909;-75
2022/10/14 11:48:20;;;;;;;;;;;16.00;99.90;;;;;;5071309;28;19915;-74
2022/10/14 11:50:52;;;;;;;;;;;16.00;99.90;;;;;;5074598;28;19966;-76
2022/10/14 11:53:49;;;;;;;;;;;16.10;99.90;;;;;;5082914;28;19954;-76
2022/10/14 11:56:16;;;;;;;;;;;16.10;99.90;;;;;;5095641;28;20362;-74
2022/10/14 11:58:44;;;;;;;;;;;16.40;99.90;;;;;;5085426;28;19939;-76
2022/10/14 12:01:18;;;;;;;;;;;16.60;99.90;;;;;;5085093;28;19969;-75
2022/10/14 12:04:03;;;;;;;;;;;16.90;99.90;;;;;;5061492;28;20348;-75
2022/10/14 12:06:38;;;;;;;;;;;17.20;99.90;;;;;;5055705;28;19908;-75
2022/10/14 12:09:27;;;;;;;;;;;17.60;99.90;;;;;;5044108;28;19947;-77
2022/10/14 12:11:56;;;;;;;;;;;17.90;99.90;;;;;;5056065;28;19953;-77
2022/10/14 12:14:31;;;;;;;;;;;18.20;99.90;;;;;;5073382;28;19928;-75
2022/10/14 12:16:57;;;;;;;;;;;18.40;99.90;;;;;;5074915;28;19908;-75
2022/10/14 12:19:27;;;;;;;;;;;18.60;99.90;;;;;;5075331;28;19904;-74
2022/10/14 12:22:07;;;;;;;;;;;18.70;99.90;;;;;;5055341;28;19956;-75
2022/10/14 12:24:36;;;;;;;;;;;18.70;99.90;;;;;;5059663;28;19905;-75
2022/10/14 12:27:06;;;;;;;;;;;18.60;99.90;;;;;;5062426;28;20339;-74
2022/10/14 12:29:34;;;;;;;;;;;18.60;99.90;;;;;;5069456;28;19905;-75
2022/10/14 12:32:02;;;;;;;;;;;18.70;99.90;;;;;;5054914;28;19982;-76
2022/10/14 12:34:33;;;;;;;;;;;18.70;99.90;;;;;;5054312;28;19920;-74
2022/10/14 12:36:59;;;;;;;;;;;18.70;99.90;;;;;;5078617;28;20354;-74
2022/10/14 12:39:31;;;;;;;;;;;18.70;99.90;;;;;;5067789;28;19909;-75
2022/10/14 12:42:05;;;;;;;;;;;18.70;99.90;;;;;;5056508;28;19956;-74
2022/10/14 12:44:40;;;;;;;;;;;18.70;99.90;;;;;;5074505;28;19908;-74
2022/10/14 12:47:14;;;;;;;;;;;18.50;99.90;;;;;;5043378;28;19916;-77
2022/10/14 12:49:45;;;;;;;;;;;18.50;99.90;;;;;;5072145;28;19904;-74
2022/10/14 12:52:17;;;;;;;;;;;18.50;99.90;;;;;;5074393;28;19999;-75
2022/10/14 12:54:46;;;;;;;;;;;18.50;99.90;;;;;;5073737;28;20343;-75
2022/10/14 12:57:21;;;;;;;;;;;18.50;99.90;;;;;;5074712;28;19905;-74
2022/10/14 12:59:50;;;;;;;;;;;18.60;99.90;;;;;;5067275;28;19912;-73
2022/10/14 13:02:34;;;;;;;;;;;18.60;99.90;;;;;;5086708;28;19915;-73
2022/10/14 13:05:01;;;;;;;;;;;18.80;99.90;;;;;;5057116;28;19908;-73
2022/10/14 13:07:45;;;;;;;;;;;19.00;99.90;;;;;;5036484;28;20376;-73
2022/10/14 13:10:26;;;;;;;;;;;19.10;99.90;;;;;;5053918;28;19916;-73
2022/10/14 13:12:52;;;;;;;;;;;19.10;99.90;;;;;;5053213;28;19920;-73
2022/10/14 13:15:29;;;;;;;;;;;19.00;99.90;;;;;;5053859;28;19913;-73
2022/10/14 13:17:55;;;;;;;;;;;19.10;99.90;;;;;;5053385;28;19909;-73
2022/10/14 13:20:32;;;;;;;;;;;19.10;99.90;;;;;;5054449;28;19916;-74
2022/10/14 13:23:16;;;;;;;;;;;19.10;99.90;;;;;;5053380;28;19908;-75
2022/10/14 13:25:42;;;;;;;;;;;19.10;99.90;;;;;;5053694;28;19913;-75
2022/10/14 13:28:13;;;;;;;;;;;19.00;99.90;;;;;;5054053;28;19913;-73
2022/10/14 13:30:59;;;;;;;;;;;19.00;99.90;;;;;;5053001;28;19908;-75
2022/10/14 13:33:31;;;;;;;;;;;18.90;99.90;;;;;;5058028;28;19923;-76
2022/10/14 13:36:14;;;;;;;;;;;18.80;99.90;;;;;;5073437;28;19915;-74
2022/10/14 13:38:43;;;;;;;;;;;18.60;99.90;;;;;;5064415;28;19908;-74
2022/10/14 13:41:13;;;;;;;;;;;18.50;99.90;;;;;;5080564;28;20397;-71
2022/10/14 13:43:43;;;;;;;;;;;18.40;99.90;;;;;;5068151;28;19943;-73
2022/10/14 13:46:13;;;;;;;;;;;18.40;99.90;;;;;;5066026;28;19912;-73
2022/10/14 13:48:41;;;;;;;;;;;18.30;99.90;;;;;;5066015;28;19948;-73
2022/10/14 13:51:13;;;;;;;;;;;18.30;99.90;;;;;;5061354;28;19967;-73
2022/10/14 13:53:57;;;;;;;;;;;18.20;99.90;;;;;;5053202;28;20015;-74
2022/10/14 13:56:25;;;;;;;;;;;18.20;99.90;;;;;;5053361;28;19987;-72
2022/10/14 13:58:50;;;;;;;;;;;18.20;99.90;;;;;;5052993;28;19909;-73
2022/10/14 14:01:16;;;;;;;;;;;18.20;99.90;;;;;;5052996;28;19912;-73
2022/10/14 14:03:43;;;;;;;;;;;18.20;99.90;;;;;;5052394;28;19909;-73
2022/10/14 14:06:18;;;;;;;;;;;18.20;99.90;;;;;;5071049;28;19908;-72
2022/10/14 14:08:46;;;;;;;;;;;18.20;99.90;;;;;;5075876;28;19913;-73
2022/10/14 14:11:15;;;;;;;;;;;18.20;99.90;;;;;;5053583;28;19967;-76
2022/10/14 14:14:01;;;;;;;;;;;18.30;99.90;;;;;;5052656;28;19963;-74
2022/10/14 14:16:47;;;;;;;;;;;18.30;99.90;;;;;;5054319;28;20356;-73
2022/10/14 14:19:21;;;;;;;;;;;18.50;99.90;;;;;;5057967;28;19913;-72
2022/10/14 14:21:46;;;;;;;;;;;18.60;99.90;;;;;;5052857;28;19908;-73
2022/10/14 14:24:21;;;;;;;;;;;18.80;99.90;;;;;;5056639;28;19915;-73
2022/10/14 14:26:46;;;;;;;;;;;18.80;99.90;;;;;;5059631;28;19999;-75
2022/10/14 14:29:16;;;;;;;;;;;18.90;99.90;;;;;;5055918;28;20003;-75
2022/10/14 14:31:42;;;;;;;;;;;18.90;99.90;;;;;;5057995;28;20337;-76
2022/10/14 14:34:13;;;;;;;;;;;18.80;99.90;;;;;;5057306;28;19928;-73